Time;durP1;ratioP1;P1;durP2;ratioP2;P2;SDS_P1;SDS_P2;PMS_P1;PMS_P2;Temp;Humidity;BMP_temperature;BMP_pressure;BME280_temperature;BME280_humidity;BME280_pressure;Samples;Min_cycle;Max_cycle;Signal;HPM_P1;HPM_P2
2024/03/04 00:00:48;;;;;;;24.13;13.27;;;8.70;99.90;;;;;;4994824;28;20448;-70
2024/03/04 00:03:16;;;;;;;25.53;11.87;;;8.70;99.90;;;;;;5000594;28;20461;-71
2024/03/04 00:05:43;;;;;;;16.50;12.47;;;8.80;99.90;;;;;;5002363;28;20444;-71
2024/03/04 00:08:10;;;;;;;22.30;11.50;;;8.90;99.90;;;;;;4997374;28;20491;-71
2024/03/04 00:10:37;;;;;;;21.90;12.97;;;8.90;99.90;;;;;;4995869;28;20442;-70
2024/03/04 00:13:04;;;;;;;22.03;12.73;;;8.90;99.90;;;;;;4997454;28;20580;-70
2024/03/04 00:15:31;;;;;;;21.97;11.13;;;8.90;99.90;;;;;;4999033;28;20440;-70
2024/03/04 00:17:58;;;;;;;20.30;12.03;;;9.10;99.90;;;;;;4997965;28;20519;-70
2024/03/04 00:20:26;;;;;;;23.73;12.77;;;9.10;99.90;;;;;;4995147;28;20647;-70
2024/03/04 00:22:53;;;;;;;22.30;12.90;;;9.00;99.90;;;;;;4994416;28;20435;-71
2024/03/04 00:25:20;;;;;;;20.80;10.57;;;9.10;99.90;;;;;;4991373;28;20464;-71
2024/03/04 00:27:48;;;;;;;18.07;10.87;;;9.20;99.90;;;;;;4995604;28;20469;-70
2024/03/04 00:30:16;;;;;;;23.10;13.23;;;9.20;99.90;;;;;;4994281;28;20481;-71
2024/03/04 00:32:43;;;;;;;23.77;11.13;;;9.10;99.90;;;;;;4995352;28;20436;-71
2024/03/04 00:35:13;;;;;;;18.70;9.77;;;9.10;99.90;;;;;;4995201;28;21003;-70
2024/03/04 00:37:42;;;;;;;15.37;10.10;;;9.20;99.90;;;;;;4994000;28;20971;-71
2024/03/04 00:40:08;;;;;;;16.83;11.27;;;9.20;99.90;;;;;;4990621;28;20818;-70
2024/03/04 00:42:37;;;;;;;23.40;10.63;;;9.30;99.90;;;;;;4998117;28;20554;-71
2024/03/04 00:45:05;;;;;;;18.23;11.90;;;9.40;99.90;;;;;;4995931;28;20461;-70
2024/03/04 00:47:32;;;;;;;18.23;11.60;;;9.40;99.90;;;;;;4993789;28;20764;-70
2024/03/04 00:49:59;;;;;;;20.63;9.80;;;9.40;99.90;;;;;;4998846;28;20983;-70
2024/03/04 00:52:26;;;;;;;19.57;12.40;;;9.30;99.90;;;;;;4998634;28;20464;-70
2024/03/04 00:54:54;;;;;;;22.63;12.63;;;9.30;99.90;;;;;;4995423;28;20465;-71
2024/03/04 00:57:21;;;;;;;17.73;9.33;;;9.30;99.90;;;;;;4990697;28;20481;-71
2024/03/04 00:59:48;;;;;;;23.63;10.23;;;9.40;99.90;;;;;;4996518;28;20640;-71
2024/03/04 01:02:14;;;;;;;22.07;10.63;;;9.30;99.90;;;;;;4991660;28;20462;-70
2024/03/04 01:04:43;;;;;;;15.27;8.90;;;9.20;99.90;;;;;;4999982;28;20514;-70
2024/03/04 01:07:09;;;;;;;14.23;8.27;;;9.20;99.90;;;;;;4997351;28;20465;-70
2024/03/04 01:09:36;;;;;;;19.30;8.87;;;9.20;99.90;;;;;;4991594;28;20492;-70
2024/03/04 01:12:05;;;;;;;14.77;8.23;;;9.20;99.90;;;;;;4994026;28;21087;-71
2024/03/04 01:14:31;;;;;;;14.73;8.43;;;9.20;99.90;;;;;;4997588;28;20435;-71
2024/03/04 01:16:58;;;;;;;22.27;11.53;;;9.20;99.90;;;;;;4990747;28;20485;-71
2024/03/04 01:19:25;;;;;;;16.63;9.03;;;9.10;99.90;;;;;;4990199;28;20492;-71
2024/03/04 01:21:52;;;;;;;13.60;8.87;;;9.10;99.90;;;;;;4997340;28;20457;-71
2024/03/04 01:24:18;;;;;;;17.20;11.53;;;9.10;99.90;;;;;;4992897;28;20479;-70
2024/03/04 01:26:45;;;;;;;22.00;10.27;;;9.00;99.90;;;;;;4992855;28;20813;-70
2024/03/04 01:29:13;;;;;;;16.97;10.47;;;9.00;99.90;;;;;;4992812;28;20481;-70
2024/03/04 01:31:40;;;;;;;19.27;9.07;;;9.00;99.90;;;;;;4998960;28;20432;-70
2024/03/04 01:34:07;;;;;;;24.93;11.37;;;9.10;99.90;;;;;;4989238;28;20469;-70
2024/03/04 01:36:33;;;;;;;24.33;9.00;;;9.00;99.90;;;;;;4997963;28;20748;-70
2024/03/04 01:39:02;;;;;;;16.40;10.40;;;9.10;99.90;;;;;;4991898;28;20459;-70
2024/03/04 01:41:29;;;;;;;13.17;9.50;;;9.00;99.90;;;;;;4992819;28;20850;-70
2024/03/04 01:43:56;;;;;;;10.03;7.17;;;9.00;99.90;;;;;;4993700;28;21341;-70
2024/03/04 01:46:24;;;;;;;15.17;7.67;;;9.00;99.90;;;;;;4991282;28;20436;-71
2024/03/04 01:48:51;;;;;;;19.20;9.63;;;8.90;99.90;;;;;;4989109;28;20511;-71
2024/03/04 01:51:19;;;;;;;9.93;7.47;;;8.90;99.90;;;;;;4994511;28;21245;-70
2024/03/04 01:53:46;;;;;;;22.03;10.30;;;8.80;99.90;;;;;;4984518;28;20450;-70
2024/03/04 01:56:13;;;;;;;22.10;10.13;;;8.80;99.90;;;;;;4994113;28;20458;-70
2024/03/04 01:58:48;;;;;;;13.37;8.57;;;8.80;99.90;;;;;;4994292;28;20550;-70
2024/03/04 02:01:15;;;;;;;21.83;9.93;;;8.70;99.90;;;;;;4994413;28;20439;-70
2024/03/04 02:03:43;;;;;;;12.10;6.90;;;8.70;99.90;;;;;;4991913;28;21073;-72
2024/03/04 02:06:10;;;;;;;14.43;8.83;;;8.70;99.90;;;;;;4990420;28;20995;-70
2024/03/04 02:08:37;;;;;;;18.30;9.07;;;8.60;99.90;;;;;;4991583;28;20830;-69
2024/03/04 02:11:05;;;;;;;12.33;8.20;;;8.60;99.90;;;;;;4994071;28;20439;-70
2024/03/04 02:13:32;;;;;;;21.63;10.77;;;8.60;99.90;;;;;;4993879;28;20432;-70
2024/03/04 02:15:58;;;;;;;18.97;9.77;;;8.70;99.90;;;;;;4992944;28;20552;-70
2024/03/04 02:18:25;;;;;;;19.50;8.37;;;8.70;99.90;;;;;;4996800;28;21064;-71
2024/03/04 02:20:58;;;;;;;20.87;14.10;;;8.80;99.90;;;;;;4992568;28;20286;-70
2024/03/04 02:23:26;;;;;;;17.93;10.53;;;8.80;99.90;;;;;;4994954;28;21003;-71
2024/03/04 02:25:54;;;;;;;15.43;10.10;;;8.90;99.90;;;;;;4995307;28;20461;-70
2024/03/04 02:28:22;;;;;;;15.30;10.80;;;8.90;99.90;;;;;;4991477;28;20477;-70
2024/03/04 02:30:49;;;;;;;26.23;15.33;;;8.90;99.90;;;;;;4995790;28;20544;-71
2024/03/04 02:33:19;;;;;;;28.10;12.10;;;9.00;99.90;;;;;;4995299;28;20451;-71
2024/03/04 02:35:46;;;;;;;24.03;10.20;;;8.90;99.90;;;;;;4994481;28;20485;-71
2024/03/04 02:38:13;;;;;;;29.27;13.47;;;9.00;99.90;;;;;;4992209;28;20467;-71
2024/03/04 02:40:41;;;;;;;34.60;15.47;;;9.00;99.90;;;;;;4992261;28;20439;-70
2024/03/04 02:43:08;;;;;;;31.90;16.17;;;9.10;99.90;;;;;;4993287;28;20450;-70
2024/03/04 02:45:35;;;;;;;29.63;14.03;;;9.00;99.90;;;;;;4993986;28;20551;-69
2024/03/04 02:48:02;;;;;;;22.43;12.77;;;9.00;99.90;;;;;;4995590;28;20469;-70
2024/03/04 02:50:29;;;;;;;35.73;15.07;;;9.00;99.90;;;;;;4992417;28;20485;-71
2024/03/04 02:52:55;;;;;;;19.43;10.20;;;9.10;99.90;;;;;;4994272;28;20450;-69
2024/03/04 02:55:22;;;;;;;27.07;12.17;;;8.90;99.90;;;;;;4993395;28;20472;-71
2024/03/04 02:57:50;;;;;;;33.67;15.53;;;8.90;99.90;;;;;;4998166;28;20465;-71
2024/03/04 03:00:17;;;;;;;28.33;14.93;;;8.90;99.90;;;;;;5001651;28;20456;-71
2024/03/04 03:02:44;;;;;;;22.53;12.97;;;8.90;99.90;;;;;;4989340;28;20462;-70
2024/03/04 03:05:11;;;;;;;22.90;12.00;;;9.00;99.90;;;;;;5003636;28;20465;-70
2024/03/04 03:07:37;;;;;;;37.10;17.20;;;9.10;99.90;;;;;;4997978;28;20449;-71
2024/03/04 03:10:05;;;;;;;25.00;9.60;;;9.20;99.90;;;;;;5001311;28;20451;-71
2024/03/04 03:12:32;;;;;;;21.30;9.60;;;9.10;99.90;;;;;;5000827;28;20467;-70
2024/03/04 03:15:00;;;;;;;23.20;13.20;;;9.00;99.90;;;;;;5001128;28;20456;-69
2024/03/04 03:17:28;;;;;;;17.37;10.63;;;9.00;99.90;;;;;;4994981;28;20571;-70
2024/03/04 03:19:54;;;;;;;28.17;15.10;;;9.10;99.90;;;;;;4985049;28;21232;-69
2024/03/04 03:22:21;;;;;;;36.87;14.33;;;9.10;99.90;;;;;;4992093;28;20443;-70
2024/03/04 03:24:48;;;;;;;21.23;13.27;;;9.10;99.90;;;;;;4992036;28;20542;-70
2024/03/04 03:27:15;;;;;;;31.23;15.73;;;9.30;99.90;;;;;;4988430;28;20464;-70
2024/03/04 03:29:41;;;;;;;26.93;12.97;;;9.30;99.90;;;;;;5003498;28;21147;-70
2024/03/04 03:32:09;;;;;;;32.70;14.47;;;9.30;99.90;;;;;;4996641;28;20469;-70
2024/03/04 03:34:36;;;;;;;14.50;9.30;;;9.20;99.90;;;;;;5002920;28;20809;-70
2024/03/04 03:37:03;;;;;;;24.50;13.07;;;9.20;99.90;;;;;;5001046;28;20477;-70
2024/03/04 03:39:29;;;;;;;56.57;16.50;;;9.20;99.90;;;;;;4999309;28;20480;-70
2024/03/04 03:41:56;;;;;;;33.87;13.80;;;9.20;99.90;;;;;;4996372;28;20447;-70
2024/03/04 03:44:23;;;;;;;35.43;14.50;;;9.20;99.90;;;;;;5002117;28;20435;-70
2024/03/04 03:46:49;;;;;;;23.20;11.20;;;9.20;99.90;;;;;;4998833;28;20460;-71
2024/03/04 03:49:20;;;;;;;37.70;14.57;;;9.20;99.90;;;;;;5000445;28;20471;-70
2024/03/04 03:51:47;;;;;;;29.43;13.73;;;9.10;99.90;;;;;;4995017;28;20988;-71
2024/03/04 03:54:14;;;;;;;29.47;14.73;;;9.10;99.90;;;;;;4997157;28;20450;-71
2024/03/04 03:56:41;;;;;;;32.70;14.50;;;9.10;99.90;;;;;;4993691;28;21296;-70
2024/03/04 03:59:08;;;;;;;28.23;12.67;;;9.20;99.90;;;;;;5001908;28;21198;-71
2024/03/04 04:01:36;;;;;;;36.23;15.93;;;9.30;99.90;;;;;;4997003;28;20464;-71
2024/03/04 04:04:04;;;;;;;36.63;15.90;;;9.30;99.90;;;;;;4999023;28;20461;-69
2024/03/04 04:06:32;;;;;;;26.97;16.83;;;9.30;99.90;;;;;;4997953;28;20476;-70
2024/03/04 04:08:59;;;;;;;37.80;14.07;;;9.40;99.90;;;;;;4994244;28;20456;-70
2024/03/04 04:11:26;;;;;;;30.83;13.80;;;9.30;99.90;;;;;;4994589;28;20515;-70
2024/03/04 04:13:52;;;;;;;29.30;14.70;;;9.30;99.90;;;;;;4999131;28;20465;-70
2024/03/04 04:16:19;;;;;;;35.50;15.73;;;9.30;99.90;;;;;;4994427;28;20432;-71
2024/03/04 04:18:46;;;;;;;26.83;14.60;;;9.30;99.90;;;;;;4999012;28;20481;-71
2024/03/04 04:21:13;;;;;;;31.00;15.30;;;9.40;99.90;;;;;;4995777;28;20650;-72
2024/03/04 04:23:41;;;;;;;42.30;17.50;;;9.40;99.90;;;;;;4997788;28;20551;-72
2024/03/04 04:26:08;;;;;;;23.57;14.57;;;9.40;99.90;;;;;;4991068;28;20571;-72
2024/03/04 04:28:35;;;;;;;30.70;14.80;;;9.50;99.90;;;;;;4990764;28;20553;-72
2024/03/04 04:31:01;;;;;;;29.77;12.87;;;9.40;99.90;;;;;;4997378;28;20440;-72
2024/03/04 04:33:29;;;;;;;45.93;14.87;;;9.40;99.90;;;;;;4993958;28;20496;-72
2024/03/04 04:35:55;;;;;;;29.20;12.80;;;9.30;99.90;;;;;;4996250;28;20999;-72
2024/03/04 04:38:22;;;;;;;24.40;14.90;;;9.20;99.90;;;;;;4992254;28;20499;-72
2024/03/04 04:40:51;;;;;;;34.60;14.63;;;9.30;99.90;;;;;;4993223;28;20477;-72
2024/03/04 04:43:20;;;;;;;34.40;14.83;;;9.30;99.90;;;;;;4995279;28;21188;-72
2024/03/04 04:45:47;;;;;;;33.33;17.10;;;9.20;99.90;;;;;;5000669;28;20428;-72
2024/03/04 04:48:14;;;;;;;39.80;13.33;;;9.30;99.90;;;;;;4996672;28;20468;-72
2024/03/04 04:50:41;;;;;;;41.53;17.97;;;9.40;99.90;;;;;;4998757;28;20601;-72
2024/03/04 04:53:08;;;;;;;35.10;13.40;;;9.50;99.90;;;;;;5002831;28;20569;-72
2024/03/04 04:55:36;;;;;;;21.70;11.70;;;9.30;99.90;;;;;;4995953;28;20432;-72
2024/03/04 04:58:04;;;;;;;34.60;14.43;;;9.20;99.90;;;;;;4994497;28;20557;-72
2024/03/04 05:00:31;;;;;;;24.00;13.50;;;9.20;99.90;;;;;;4998593;28;20511;-72
2024/03/04 05:02:57;;;;;;;35.93;16.13;;;9.10;99.90;;;;;;4994701;28;20440;-72
2024/03/04 05:05:24;;;;;;;24.87;13.63;;;9.10;99.90;;;;;;4996212;28;20567;-72
2024/03/04 05:07:51;;;;;;;34.50;13.87;;;9.10;99.90;;;;;;4996346;28;20432;-72
2024/03/04 05:10:18;;;;;;;27.97;12.30;;;9.00;99.90;;;;;;5000004;28;21378;-72
2024/03/04 05:12:45;;;;;;;42.67;16.70;;;9.00;99.90;;;;;;4994684;28;20465;-72
2024/03/04 05:15:13;;;;;;;44.10;18.17;;;9.00;99.90;;;;;;4997722;28;20531;-72
2024/03/04 05:17:40;;;;;;;38.70;16.47;;;9.20;99.90;;;;;;4991829;28;20568;-71
2024/03/04 05:20:06;;;;;;;40.40;16.13;;;9.00;99.90;;;;;;4992174;28;20471;-71
2024/03/04 05:22:34;;;;;;;47.37;17.03;;;9.00;99.90;;;;;;4996482;28;20477;-71
2024/03/04 05:25:00;;;;;;;40.40;16.17;;;9.00;99.90;;;;;;4996607;28;20439;-72
2024/03/04 05:27:28;;;;;;;36.03;15.93;;;9.00;99.90;;;;;;5002314;28;20420;-71
2024/03/04 05:29:55;;;;;;;32.20;15.33;;;9.00;99.90;;;;;;4999130;28;20455;-71
2024/03/04 05:32:23;;;;;;;44.13;16.43;;;9.00;99.90;;;;;;4995062;28;20439;-71
2024/03/04 05:34:49;;;;;;;62.73;15.90;;;9.10;99.90;;;;;;4999956;28;20439;-71
2024/03/04 05:37:16;;;;;;;29.00;15.70;;;9.10;99.90;;;;;;4995819;28;20551;-71
2024/03/04 05:39:46;;;;;;;32.13;13.97;;;9.00;99.90;;;;;;4995198;28;20497;-71
2024/03/04 05:42:13;;;;;;;42.43;15.50;;;9.00;99.90;;;;;;4990900;28;21884;-72
2024/03/04 05:44:39;;;;;;;30.20;15.20;;;9.00;99.90;;;;;;4995360;28;20432;-72
2024/03/04 05:47:06;;;;;;;37.67;14.43;;;8.90;99.90;;;;;;4995359;28;20666;-72
2024/03/04 05:49:37;;;;;;;27.43;14.30;;;9.00;99.90;;;;;;4990737;28;20489;-71
2024/03/04 05:52:04;;;;;;;30.47;15.07;;;9.00;99.90;;;;;;4990943;28;20502;-72
2024/03/04 05:54:32;;;;;;;40.23;15.77;;;9.00;99.90;;;;;;4995988;28;20465;-72
2024/03/04 05:56:59;;;;;;;42.00;16.33;;;8.90;99.90;;;;;;4993606;28;20837;-72
2024/03/04 05:59:25;;;;;;;44.10;16.80;;;9.00;99.90;;;;;;4995575;28;20920;-72
2024/03/04 06:01:53;;;;;;;49.13;20.90;;;9.00;99.90;;;;;;4999700;28;20460;-72
2024/03/04 06:04:20;;;;;;;42.93;15.07;;;9.10;99.90;;;;;;4992489;28;20560;-71
2024/03/04 06:06:48;;;;;;;45.73;14.53;;;9.10;99.90;;;;;;4998876;28;20433;-71
2024/03/04 06:09:16;;;;;;;40.80;17.90;;;9.20;99.90;;;;;;4984555;28;21616;-73
2024/03/04 06:11:43;;;;;;;36.40;13.77;;;9.20;99.90;;;;;;4991768;28;20527;-73
2024/03/04 06:14:10;;;;;;;37.97;13.20;;;9.30;99.90;;;;;;4992664;28;20593;-73
2024/03/04 06:16:37;;;;;;;33.13;13.57;;;9.30;99.90;;;;;;4994795;28;20455;-71
2024/03/04 06:19:04;;;;;;;35.80;13.33;;;9.20;99.90;;;;;;4993227;28;20504;-71
2024/03/04 06:21:30;;;;;;;31.63;15.70;;;9.20;99.90;;;;;;4991423;28;20862;-71
2024/03/04 06:23:58;;;;;;;34.87;13.97;;;9.30;99.90;;;;;;4993098;28;20922;-72
2024/03/04 06:26:25;;;;;;;27.90;9.87;;;9.30;99.90;;;;;;4995929;28;20441;-71
2024/03/04 06:28:52;;;;;;;36.53;15.53;;;9.30;99.90;;;;;;4998577;28;20452;-71
2024/03/04 06:31:19;;;;;;;39.27;15.20;;;9.20;99.90;;;;;;4994644;28;20465;-72
2024/03/04 06:33:45;;;;;;;35.00;13.33;;;9.20;99.90;;;;;;4996644;28;20503;-72
2024/03/04 06:36:12;;;;;;;44.83;17.63;;;9.20;99.90;;;;;;4997724;28;20462;-72
2024/03/04 06:38:40;;;;;;;32.03;13.77;;;9.20;99.90;;;;;;4992927;28;20482;-72
2024/03/04 06:41:08;;;;;;;49.87;17.70;;;9.20;99.90;;;;;;4990864;28;20431;-71
2024/03/04 06:43:35;;;;;;;26.23;12.60;;;9.10;99.90;;;;;;4998030;28;20524;-71
2024/03/04 06:46:03;;;;;;;34.63;14.90;;;9.20;99.90;;;;;;4995713;28;20472;-72
2024/03/04 06:48:30;;;;;;;36.90;16.30;;;9.10;99.90;;;;;;4994422;28;20448;-72
2024/03/04 06:50:57;;;;;;;24.83;13.37;;;9.20;99.90;;;;;;4992952;28;20487;-72
2024/03/04 06:53:24;;;;;;;36.77;17.10;;;9.20;99.90;;;;;;4995507;28;22308;-71
2024/03/04 06:55:51;;;;;;;34.50;13.43;;;9.30;99.90;;;;;;5000505;28;20462;-72
2024/03/04 06:58:19;;;;;;;43.43;15.13;;;9.30;99.90;;;;;;4995626;28;20559;-71
2024/03/04 07:00:47;;;;;;;56.40;19.00;;;9.30;99.90;;;;;;5002033;28;20447;-71
2024/03/04 07:03:14;;;;;;;37.23;18.30;;;9.40;99.90;;;;;;4992594;28;20900;-70
2024/03/04 07:05:41;;;;;;;37.23;14.33;;;9.40;99.90;;;;;;4998320;28;20461;-71
2024/03/04 07:08:07;;;;;;;32.47;15.10;;;9.50;99.90;;;;;;4999247;28;20433;-71
2024/03/04 07:10:36;;;;;;;34.63;16.07;;;9.30;99.90;;;;;;4998673;28;20452;-71
2024/03/04 07:13:03;;;;;;;41.10;13.20;;;9.30;99.90;;;;;;5000490;28;20832;-71
2024/03/04 07:15:31;;;;;;;32.23;16.30;;;9.30;99.90;;;;;;4991826;28;20465;-71
2024/03/04 07:17:58;;;;;;;44.83;18.40;;;9.30;99.90;;;;;;4992574;28;20435;-72
2024/03/04 07:20:24;;;;;;;30.63;14.50;;;9.20;99.90;;;;;;4985494;28;20479;-72
2024/03/04 07:22:51;;;;;;;28.47;14.47;;;9.30;99.90;;;;;;4991520;28;20591;-72
2024/03/04 07:25:18;;;;;;;39.37;15.60;;;9.40;99.90;;;;;;4995234;28;20437;-72
2024/03/04 07:27:44;;;;;;;37.67;16.60;;;9.50;99.90;;;;;;4999742;28;20458;-72
2024/03/04 07:30:12;;;;;;;34.37;15.17;;;9.40;99.90;;;;;;4998613;28;20481;-71
2024/03/04 07:32:40;;;;;;;27.93;11.40;;;9.30;99.90;;;;;;4996134;28;20431;-71
2024/03/04 07:35:07;;;;;;;32.43;12.67;;;9.30;99.90;;;;;;4995768;28;20935;-72
2024/03/04 07:37:34;;;;;;;38.33;18.60;;;9.20;99.90;;;;;;4992938;28;20804;-72
2024/03/04 07:40:01;;;;;;;29.03;15.17;;;9.30;99.90;;;;;;4994365;28;21152;-71
2024/03/04 07:42:28;;;;;;;23.97;9.43;;;9.20;99.90;;;;;;4997605;28;21214;-72
2024/03/04 07:44:54;;;;;;;20.67;11.70;;;9.00;99.90;;;;;;5002507;28;20435;-72
2024/03/04 07:47:21;;;;;;;24.90;11.13;;;9.00;99.90;;;;;;5001552;28;20461;-72
2024/03/04 07:49:49;;;;;;;26.47;12.57;;;9.00;99.90;;;;;;4998067;28;20476;-73
2024/03/04 07:52:16;;;;;;;21.87;9.20;;;9.10;99.90;;;;;;4991695;28;20432;-72
2024/03/04 07:54:43;;;;;;;18.83;7.67;;;9.20;99.90;;;;;;4995681;28;20436;-72
2024/03/04 07:57:12;;;;;;;17.47;8.60;;;9.20;99.90;;;;;;4993496;28;20439;-72
2024/03/04 07:59:38;;;;;;;27.37;10.83;;;9.20;99.90;;;;;;4999254;28;20497;-72
2024/03/04 08:02:08;;;;;;;15.57;6.60;;;9.20;99.90;;;;;;4994061;28;20842;-73
2024/03/04 08:04:35;;;;;;;16.63;8.83;;;9.20;99.90;;;;;;4990573;28;20507;-71
2024/03/04 08:07:04;;;;;;;17.37;9.97;;;9.30;99.90;;;;;;4989807;28;20450;-72
2024/03/04 08:09:31;;;;;;;27.83;12.37;;;9.50;99.90;;;;;;4997134;28;21966;-72
2024/03/04 08:11:58;;;;;;;20.70;10.10;;;9.50;99.90;;;;;;4990256;28;20477;-70
2024/03/04 08:14:24;;;;;;;15.87;7.67;;;9.40;99.90;;;;;;4991982;28;20465;-71
2024/03/04 08:16:51;;;;;;;21.20;9.27;;;9.30;99.90;;;;;;4991689;28;20926;-72
2024/03/04 08:19:18;;;;;;;17.73;8.77;;;9.30;99.90;;;;;;4992193;28;20469;-73
2024/03/04 08:21:45;;;;;;;20.40;8.90;;;9.30;99.90;;;;;;4994899;28;21132;-72
2024/03/04 08:24:14;;;;;;;19.90;10.40;;;9.30;99.90;;;;;;4995230;28;20943;-72
2024/03/04 08:26:40;;;;;;;26.47;8.97;;;9.40;99.90;;;;;;4994678;28;21157;-73
2024/03/04 08:29:07;;;;;;;18.70;11.37;;;9.60;99.90;;;;;;4997781;28;20477;-73
2024/03/04 08:31:36;;;;;;;24.50;9.57;;;9.80;99.90;;;;;;4992739;28;20457;-72
2024/03/04 08:34:05;;;;;;;26.57;13.37;;;9.80;99.90;;;;;;4993576;28;21058;-72
2024/03/04 08:36:31;;;;;;;26.87;11.07;;;9.90;99.90;;;;;;4998266;28;20534;-72
2024/03/04 08:38:58;;;;;;;25.27;9.10;;;10.00;99.90;;;;;;4996861;28;20484;-72
2024/03/04 08:41:26;;;;;;;17.90;9.13;;;10.00;99.90;;;;;;4992158;28;21206;-72
2024/03/04 08:43:54;;;;;;;29.83;10.20;;;9.80;99.90;;;;;;5002036;28;20564;-72
2024/03/04 08:46:21;;;;;;;19.97;9.23;;;9.60;99.90;;;;;;4994435;28;20584;-72
2024/03/04 08:48:48;;;;;;;21.80;10.27;;;9.60;99.90;;;;;;4994006;28;20496;-72
2024/03/04 08:51:17;;;;;;;23.27;9.73;;;9.60;99.90;;;;;;5000706;28;20552;-71
2024/03/04 08:53:44;;;;;;;19.27;10.07;;;9.60;99.90;;;;;;4995792;28;20978;-73
2024/03/04 08:56:11;;;;;;;17.07;9.93;;;9.70;99.90;;;;;;4997741;28;20466;-72
2024/03/04 08:58:41;;;;;;;18.43;8.47;;;9.50;99.90;;;;;;4998838;28;20968;-72
2024/03/04 09:01:09;;;;;;;21.13;8.30;;;9.70;99.90;;;;;;5003831;28;20459;-72
2024/03/04 09:03:35;;;;;;;18.63;8.73;;;9.60;99.90;;;;;;5004307;28;20477;-72
2024/03/04 09:06:02;;;;;;;35.47;11.53;;;9.60;99.90;;;;;;5000787;28;21021;-71
2024/03/04 09:08:29;;;;;;;19.47;8.40;;;9.60;99.90;;;;;;4999610;28;20547;-72
2024/03/04 09:10:56;;;;;;;19.50;10.90;;;9.70;99.90;;;;;;5003647;28;20460;-72
2024/03/04 09:13:23;;;;;;;25.47;9.37;;;9.70;99.90;;;;;;5002553;28;20445;-72
2024/03/04 09:15:52;;;;;;;25.40;10.33;;;9.60;99.90;;;;;;5000198;28;20532;-72
2024/03/04 09:18:19;;;;;;;29.63;11.57;;;9.60;99.90;;;;;;5000749;28;20424;-71
2024/03/04 09:20:45;;;;;;;37.03;10.87;;;9.60;99.90;;;;;;5000406;28;20836;-72
2024/03/04 09:23:14;;;;;;;25.47;12.20;;;9.70;99.90;;;;;;5000081;28;20448;-72
2024/03/04 09:25:41;;;;;;;19.37;9.07;;;9.70;99.90;;;;;;4998953;28;20473;-72
2024/03/04 09:28:08;;;;;;;23.73;9.80;;;9.60;99.90;;;;;;4989976;28;20450;-72
2024/03/04 09:30:35;;;;;;;21.40;9.83;;;9.70;99.90;;;;;;4993654;28;20575;-72
2024/03/04 09:33:03;;;;;;;15.57;8.83;;;9.80;99.90;;;;;;4996242;28;20440;-72
2024/03/04 09:35:30;;;;;;;29.30;12.47;;;9.60;99.90;;;;;;4988764;28;20557;-72
2024/03/04 09:37:57;;;;;;;17.87;7.37;;;9.50;99.90;;;;;;4993258;28;20457;-72
2024/03/04 09:40:24;;;;;;;20.93;9.40;;;9.40;99.90;;;;;;4995903;28;20849;-72
2024/03/04 09:42:51;;;;;;;17.77;8.70;;;9.50;99.90;;;;;;4992332;28;20446;-72
2024/03/04 09:45:19;;;;;;;21.97;9.60;;;9.70;99.90;;;;;;4988048;28;20552;-72
2024/03/04 09:47:49;;;;;;;14.37;7.53;;;9.90;99.90;;;;;;4992581;28;20440;-72
2024/03/04 09:50:19;;;;;;;15.23;8.13;;;10.00;99.90;;;;;;4989678;28;20487;-72
2024/03/04 09:52:47;;;;;;;23.23;9.53;;;9.90;99.90;;;;;;4994746;28;20439;-72
2024/03/04 09:55:13;;;;;;;15.77;8.00;;;9.90;99.90;;;;;;5000078;28;20917;-72
2024/03/04 09:57:40;;;;;;;21.10;8.23;;;9.90;99.90;;;;;;4989294;28;20604;-72
2024/03/04 10:00:13;;;;;;;11.93;6.63;;;9.90;99.90;;;;;;4998016;28;20488;-72
2024/03/04 10:02:41;;;;;;;22.87;8.93;;;9.90;99.90;;;;;;4996776;28;20539;-72
2024/03/04 10:05:08;;;;;;;22.20;8.47;;;9.90;99.90;;;;;;5001584;28;20438;-72
2024/03/04 10:07:37;;;;;;;14.07;7.00;;;9.90;99.90;;;;;;4990782;28;20440;-72
2024/03/04 10:10:04;;;;;;;21.30;7.60;;;9.80;99.90;;;;;;4994276;28;20448;-72
2024/03/04 10:12:31;;;;;;;22.40;9.07;;;9.80;99.90;;;;;;4999799;28;20465;-72
2024/03/04 10:15:09;;;;;;;17.47;8.60;;;9.80;99.90;;;;;;5001611;28;20903;-72
2024/03/04 10:17:37;;;;;;;20.73;8.27;;;9.80;99.90;;;;;;4998836;28;20461;-72
2024/03/04 10:20:07;;;;;;;18.20;9.00;;;9.70;99.90;;;;;;4991234;28;20464;-72
2024/03/04 10:22:38;;;;;;;21.90;7.60;;;9.70;99.90;;;;;;4997521;28;20888;-71
2024/03/04 10:25:06;;;;;;;15.00;7.87;;;9.80;99.90;;;;;;5000113;28;20472;-71
2024/03/04 10:27:33;;;;;;;20.73;8.60;;;9.80;99.90;;;;;;4992369;28;20535;-71
2024/03/04 10:30:10;;;;;;;17.53;9.50;;;9.70;99.90;;;;;;4993608;28;20473;-71
2024/03/04 10:32:37;;;;;;;13.80;6.33;;;9.90;99.90;;;;;;4994778;28;20533;-71
2024/03/04 10:35:05;;;;;;;21.47;8.43;;;9.80;99.90;;;;;;4997852;28;20976;-73
2024/03/04 10:37:31;;;;;;;25.03;9.53;;;9.60;99.90;;;;;;4991198;28;20592;-71
2024/03/04 10:40:00;;;;;;;22.33;10.30;;;9.70;99.90;;;;;;4990773;28;20455;-72
2024/03/04 10:42:26;;;;;;;25.13;10.13;;;9.80;99.90;;;;;;4993953;28;20442;-72
2024/03/04 10:44:57;;;;;;;19.97;7.17;;;9.80;99.90;;;;;;4995407;28;20432;-72
2024/03/04 10:47:24;;;;;;;21.10;9.60;;;9.70;99.90;;;;;;4994477;28;20424;-72
2024/03/04 10:49:51;;;;;;;21.00;8.30;;;9.60;99.90;;;;;;5000885;28;20470;-72
2024/03/04 10:52:18;;;;;;;22.00;7.33;;;9.70;99.90;;;;;;4992426;28;20482;-72
2024/03/04 10:54:45;;;;;;;25.50;9.63;;;9.70;99.90;;;;;;4998090;28;20491;-72
2024/03/04 10:57:26;;;;;;;18.50;7.37;;;9.70;99.90;;;;;;4997333;28;20436;-72
2024/03/04 10:59:54;;;;;;;24.63;12.03;;;9.70;99.90;;;;;;4997402;28;20583;-72
2024/03/04 11:02:32;;;;;;;16.10;7.30;;;9.80;99.90;;;;;;4997427;28;20850;-72
2024/03/04 11:05:01;;;;;;;18.23;7.37;;;9.90;99.90;;;;;;5000246;28;20431;-71
2024/03/04 11:07:31;;;;;;;13.60;6.40;;;9.90;99.90;;;;;;4993746;28;20461;-71
2024/03/04 11:10:01;;;;;;;16.10;6.27;;;9.90;99.90;;;;;;5001476;28;20451;-71
2024/03/04 11:12:33;;;;;;;21.80;8.87;;;9.80;99.90;;;;;;5000191;28;20466;-71
2024/03/04 11:15:06;;;;;;;10.97;6.30;;;9.60;99.90;;;;;;4997816;28;20444;-72
2024/03/04 11:17:36;;;;;;;15.70;8.30;;;9.60;99.90;;;;;;4996645;28;20440;-72
2024/03/04 11:20:04;;;;;;;14.13;7.40;;;9.60;99.90;;;;;;4999726;28;20474;-72
2024/03/04 11:22:32;;;;;;;22.73;8.20;;;9.60;99.90;;;;;;5001606;28;20438;-72
2024/03/04 11:25:00;;;;;;;27.13;9.07;;;9.60;99.90;;;;;;5003850;28;21022;-72
2024/03/04 11:27:29;;;;;;;15.27;7.90;;;9.70;99.90;;;;;;4999062;28;20537;-72
2024/03/04 11:29:56;;;;;;;17.63;7.13;;;9.70;99.90;;;;;;4999708;28;20452;-72
2024/03/04 11:32:26;;;;;;;17.17;7.73;;;9.80;99.90;;;;;;4994352;28;20480;-72
2024/03/04 11:35:05;;;;;;;10.50;6.70;;;9.90;99.90;;;;;;5001726;28;20806;-71
2024/03/04 11:37:32;;;;;;;21.23;9.30;;;9.90;99.90;;;;;;4985230;28;20583;-71
2024/03/04 11:40:01;;;;;;;29.67;9.03;;;9.90;99.90;;;;;;4990597;28;20501;-71
2024/03/04 11:42:36;;;;;;;13.93;7.13;;;9.80;99.90;;;;;;4997617;28;20461;-70
2024/03/04 11:45:07;;;;;;;13.27;7.33;;;9.90;99.90;;;;;;4999068;28;20457;-71
2024/03/04 11:47:34;;;;;;;17.20;7.73;;;9.90;99.90;;;;;;4996972;28;20887;-70
2024/03/04 11:50:01;;;;;;;20.07;9.47;;;10.00;99.90;;;;;;4998652;28;20495;-71
2024/03/04 11:52:28;;;;;;;14.57;8.20;;;10.10;99.90;;;;;;4993924;28;20452;-70
2024/03/04 11:54:57;;;;;;;16.17;7.50;;;10.00;99.90;;;;;;4997663;28;20458;-71
2024/03/04 11:57:25;;;;;;;18.93;8.97;;;10.00;99.90;;;;;;5000768;28;20458;-71
2024/03/04 12:00:00;;;;;;;26.43;10.80;;;10.10;99.90;;;;;;4996639;28;20495;-71
2024/03/04 12:02:27;;;;;;;23.97;8.93;;;10.10;99.90;;;;;;4994929;28;20435;-71
2024/03/04 12:04:55;;;;;;;16.53;8.30;;;10.20;99.90;;;;;;5001518;28;20891;-69
2024/03/04 12:07:22;;;;;;;23.93;8.93;;;10.30;99.90;;;;;;4996926;28;21032;-70
2024/03/04 12:09:49;;;;;;;14.67;8.47;;;10.30;99.90;;;;;;5002270;28;20476;-71
2024/03/04 12:12:16;;;;;;;22.13;8.83;;;10.20;99.90;;;;;;5000376;28;20465;-71
2024/03/04 12:14:44;;;;;;;15.27;6.70;;;10.30;99.90;;;;;;5000016;28;20909;-71
2024/03/04 12:17:13;;;;;;;15.23;6.87;;;10.20;99.90;;;;;;5003011;28;20874;-72
2024/03/04 12:19:53;;;;;;;17.53;6.70;;;10.10;99.90;;;;;;5003846;28;20510;-71
2024/03/04 12:22:24;;;;;;;13.97;7.30;;;9.90;99.90;;;;;;4998508;28;20457;-70
2024/03/04 12:25:03;;;;;;;11.87;5.80;;;9.90;99.90;;;;;;5003514;28;20432;-72
2024/03/04 12:27:30;;;;;;;15.20;7.43;;;9.90;99.90;;;;;;5005000;28;20435;-70
2024/03/04 12:30:14;;;;;;;17.77;10.00;;;10.00;99.90;;;;;;5004064;28;20480;-72
2024/03/04 12:32:43;;;;;;;17.33;6.80;;;10.00;99.90;;;;;;4996075;28;20476;-71
2024/03/04 12:35:22;;;;;;;18.03;8.13;;;10.20;99.90;;;;;;4999341;28;20548;-72
2024/03/04 12:37:50;;;;;;;14.37;8.50;;;10.20;99.90;;;;;;5006986;28;20444;-72
2024/03/04 12:40:18;;;;;;;14.43;7.77;;;9.90;99.90;;;;;;5004412;28;20481;-72
2024/03/04 12:42:46;;;;;;;13.23;6.60;;;9.90;99.90;;;;;;4999284;28;20827;-72